(°C)
11°
11°
11°
10°
10°
10°
10°
(°C)
N
NNO
NO
O
O
ONO
O
(km/h)
10-13
12-18
14-26
17-32
20-34
18-29
16-29
(mm)
2.1
3
2.2
3
2.5
1.4
0
(%)
99
99
99
99
99
99
63

Elevación del sol

/ -12.9°
sun-icon
UV 2
03:59
20:56
Menguante (327°)
03:07
17:28

METAR a 55.6°N 37.27°E (UUWW)

Hora Condiciones Temperatura/
Punto de condensación
Viento Visibilidad Tiempo Nubes Presión Cambiar Bruto
LIFR 11°C / 9°C 360º 12kt 5000m Light Rain 1.00mm precipitation Vertical Visibility of 0ft.
Overcast 3300ft
996 No Significant change. Runway 06: Wet or puddles, 51-100% contamination with 3mm, friction coefficient 0.50. UUWW 262130Z 36006MPS 5000 -RA BKN004 OVC033 11/09 Q0996 R06/290350 NOSIG
LIFR 11°C / 9°C 20º 12kt 5000m Light Showers Rain 3.00mm precipitation Vertical Visibility of 0ft.
Broken Clouds 2600ft
996 No Significant change. Runway 06: Wet or puddles, 51-100% contamination with 3mm, friction coefficient 0.50. UUWW 262100Z 02006MPS 5000 -SHRA BKN003 BKN026CB 11/09 Q0996 R06/290350 NOSIG
LIFR 11°C / 9°C 30º 10kt 4400m Light Showers Rain 3.00mm precipitation Vertical Visibility of 0ft.
Broken Clouds 2600ft
997 No Significant change. Runway 06: Wet or puddles, 51-100% contamination with 3mm, friction coefficient 0.50. UUWW 262030Z 03005MPS 4400 -SHRA BKN003 BKN026CB 11/09 Q0997 R06/290350 NOSIG
MVFR 11°C / 9°C 40º 16kt 5000m Light Showers Rain 3.00mm precipitation Vertical Visibility of 0ft.
Broken Clouds 3300ft
997 No Significant change. Runway 06: Wet or puddles, 51-100% contamination with 3mm, friction coefficient 0.50. UUWW 262000Z 04008MPS 5000 -SHRA FEW005 BKN033CB 11/09 Q0997 R06/290350 NOSIG
MVFR 11°C / 9°C 70º 14kt 5000m Light Showers Rain 3.00mm precipitation Vertical Visibility of 0ft.
Broken Clouds 2600ft
997 No Significant change. Runway 06: Wet or puddles, 51-100% contamination with 3mm, friction coefficient 0.50. UUWW 261930Z 07007MPS 5000 -SHRA FEW009 BKN026CB 11/09 Q0997 R06/290350 NOSIG
IFR 11°C / 9°C 60º 16kt 4600m Light Showers Rain 3.00mm precipitation Vertical Visibility of 0ft.
Broken Clouds 3000ft
998 No Significant change. Runway 06: Wet or puddles, 51-100% contamination with 3mm, friction coefficient 0.50. UUWW 261900Z 06008MPS 4600 -SHRA FEW008 BKN030CB 11/09 Q0998 R06/290350 NOSIG
MVFR 11°C / 9°C 60º 14kt 8000m Light Showers Rain 3.00mm precipitation Vertical Visibility of 0ft.
Broken Clouds 3000ft
998 No Significant change. Runway 06: Wet or puddles, 51-100% contamination with 2mm, friction coefficient 0.50. UUWW 261830Z 06007MPS 8000 -SHRA FEW009 BKN030CB 11/09 Q0998 R06/290250 NOSIG
VFR 12°C / 9°C 50º 14kt >10km Light Showers Rain 3.00mm precipitation Vertical Visibility of 0ft. 999 No Significant change. Runway 06: Wet or puddles, 51-100% contamination with 2mm, friction coefficient 0.50. UUWW 261800Z 05007MPS 9999 -SHRA BKN050CB 12/09 Q0999 R06/290250 NOSIG
VFR 12°C / 8°C 70º 8kt >10km Light Showers Rain 3.00mm precipitation Vertical Visibility of 0ft. 1000 No Significant change. Runway 24: Wet or puddles, 51-100% contamination with 2mm, friction coefficient 0.50. UUWW 261730Z 07004MPS 9999 -SHRA BKN050CB 12/08 Q1000 R24/290250 NOSIG
VFR 12°C / 8°C 100º 4kt >10km Light Showers Rain 3.00mm precipitation Vertical Visibility of 0ft. 1000 No Significant change. Runway 24: Wet or puddles, 51-100% contamination with <1mm, friction coefficient 0.50. UUWW 261700Z 10002MPS 9999 -SHRA BKN050CB 12/08 Q1000 R24/290050 NOSIG
VFR 13°C / 8°C 150º 4kt >10km Light Showers Rain 3.00mm precipitation Vertical Visibility of 0ft. 1001 No Significant change. Runway 24: Wet or puddles, 51-100% contamination with <1mm, friction coefficient 0.50. UUWW 261630Z 15002MPS 9999 -SHRA BKN050CB 13/08 Q1001 R24/290050 NOSIG
VFR 14°C / 6°C 180º 6kt >10km Light Showers Rain 3.00mm precipitation Vertical Visibility of 0ft. 1002 No Significant change. Runway 24: Wet or puddles, 51-100% contamination with <1mm, friction coefficient 0.50. UUWW 261600Z 18003MPS 9999 -SHRA BKN050CB 14/06 Q1002 R24/290050 NOSIG
VFR 16°C / 3°C 140º variable 100º to 170º 4kt >10km Light Showers Rain 3.00mm precipitation Vertical Visibility of 0ft. 1002 No Significant change. Runway 24: Wet or puddles, 51-100% contamination with <1mm, friction coefficient 0.50. UUWW 261530Z 14002MPS 100V170 9999 -SHRA BKN050CB 16/03 Q1002 R24/290050 NOSIG
VFR 17°C / 2°C 180º 6kt. Wind Shear present on Runway 24. >10km Light Showers Rain 3.00mm precipitation Vertical Visibility of 0ft. 1002 No Significant change. Runway 24: Wet or puddles, 51-100% contamination with <1mm, friction coefficient 0.50. UUWW 261500Z 18003MPS 9999 -SHRA BKN050CB 17/02 Q1002 WS R24 R24/290050 NOSIG
VFR 18°C / 3°C 180º variable 110º to 220º 8kt Gust 17kt >10km - Clouds and Visibility OK 1002 No Significant change. Runway 06: Damp, 51-100% contamination with <1mm, friction coefficient 0.60. UUWW 261430Z 18004G09MPS 110V220 CAVOK 18/03 Q1002 R06/190060 NOSIG
VFR 18°C / 4°C 140º 6kt >10km - Clouds and Visibility OK 1002 No Significant change UUWW 261400Z 14003MPS CAVOK 18/04 Q1002 R19/000070 NOSIG
VFR 18°C / 3°C 170º 6kt >10km - Clouds and Visibility OK 1003 No Significant change UUWW 261330Z 17003MPS CAVOK 18/03 Q1003 R19/000070 NOSIG
VFR 18°C / 3°C 170º 12kt >10km - Clouds and Visibility OK 1003 No Significant change UUWW 261300Z 17006MPS CAVOK 18/03 Q1003 R19/000070 NOSIG
VFR 19°C / 3°C 180º 12kt >10km - Clouds and Visibility OK 1004 No Significant change UUWW 261230Z 18006MPS CAVOK 19/03 Q1004 R19/000070 NOSIG
VFR 19°C / 3°C 150º variable 110º to 190º 8kt >10km - Clouds and Visibility OK 1004 No Significant change UUWW 261200Z 15004MPS 110V190 CAVOK 19/03 Q1004 R19/000070 NOSIG
VFR 19°C / 3°C 170º 6kt >10km - Clouds and Visibility OK 1005 No Significant change UUWW 261130Z 17003MPS CAVOK 19/03 Q1005 R19/000070 NOSIG
VFR 19°C / 3°C 160º variable 120º to 220º 6kt >10km - Clouds and Visibility OK 1005 No Significant change UUWW 261100Z 16003MPS 120V220 CAVOK 19/03 Q1005 R19/000070 NOSIG
VFR 19°C / 3°C 200º 6kt >10km - Clouds and Visibility OK 1005 No Significant change UUWW 261030Z 20003MPS CAVOK 19/03 Q1005 R19/000070 NOSIG
VFR 19°C / 2°C 210º variable 180º to 260º 8kt >10km - Clouds and Visibility OK 1006 No Significant change UUWW 261000Z 21004MPS 180V260 CAVOK 19/02 Q1006 R19/000070 NOSIG

LIFR

11°C / 9°C

[Más]
Viento 360º 12kt
Visibilidad 5000m
Tiempo Light Rain 1.00mm precipitation
Nubes Vertical Visibility of 0ft.
Overcast 3300ft
Presión 996
Cambiar No Significant change. Runway 06: Wet or puddles, 51-100% contamination with 3mm, friction coefficient 0.50.
Bruto UUWW 262130Z 36006MPS 5000 -RA BKN004 OVC033 11/09 Q0996 R06/290350 NOSIG

LIFR

11°C / 9°C

[Más]
Viento 20º 12kt
Visibilidad 5000m
Tiempo Light Showers Rain 3.00mm precipitation
Nubes Vertical Visibility of 0ft.
Broken Clouds 2600ft
Presión 996
Cambiar No Significant change. Runway 06: Wet or puddles, 51-100% contamination with 3mm, friction coefficient 0.50.
Bruto UUWW 262100Z 02006MPS 5000 -SHRA BKN003 BKN026CB 11/09 Q0996 R06/290350 NOSIG

LIFR

11°C / 9°C

[Más]
Viento 30º 10kt
Visibilidad 4400m
Tiempo Light Showers Rain 3.00mm precipitation
Nubes Vertical Visibility of 0ft.
Broken Clouds 2600ft
Presión 997
Cambiar No Significant change. Runway 06: Wet or puddles, 51-100% contamination with 3mm, friction coefficient 0.50.
Bruto UUWW 262030Z 03005MPS 4400 -SHRA BKN003 BKN026CB 11/09 Q0997 R06/290350 NOSIG

MVFR

11°C / 9°C

[Más]
Viento 40º 16kt
Visibilidad 5000m
Tiempo Light Showers Rain 3.00mm precipitation
Nubes Vertical Visibility of 0ft.
Broken Clouds 3300ft
Presión 997
Cambiar No Significant change. Runway 06: Wet or puddles, 51-100% contamination with 3mm, friction coefficient 0.50.
Bruto UUWW 262000Z 04008MPS 5000 -SHRA FEW005 BKN033CB 11/09 Q0997 R06/290350 NOSIG

MVFR

11°C / 9°C

[Más]
Viento 70º 14kt
Visibilidad 5000m
Tiempo Light Showers Rain 3.00mm precipitation
Nubes Vertical Visibility of 0ft.
Broken Clouds 2600ft
Presión 997
Cambiar No Significant change. Runway 06: Wet or puddles, 51-100% contamination with 3mm, friction coefficient 0.50.
Bruto UUWW 261930Z 07007MPS 5000 -SHRA FEW009 BKN026CB 11/09 Q0997 R06/290350 NOSIG

IFR

11°C / 9°C

[Más]
Viento 60º 16kt
Visibilidad 4600m
Tiempo Light Showers Rain 3.00mm precipitation
Nubes Vertical Visibility of 0ft.
Broken Clouds 3000ft
Presión 998
Cambiar No Significant change. Runway 06: Wet or puddles, 51-100% contamination with 3mm, friction coefficient 0.50.
Bruto UUWW 261900Z 06008MPS 4600 -SHRA FEW008 BKN030CB 11/09 Q0998 R06/290350 NOSIG

MVFR

11°C / 9°C

[Más]
Viento 60º 14kt
Visibilidad 8000m
Tiempo Light Showers Rain 3.00mm precipitation
Nubes Vertical Visibility of 0ft.
Broken Clouds 3000ft
Presión 998
Cambiar No Significant change. Runway 06: Wet or puddles, 51-100% contamination with 2mm, friction coefficient 0.50.
Bruto UUWW 261830Z 06007MPS 8000 -SHRA FEW009 BKN030CB 11/09 Q0998 R06/290250 NOSIG

VFR

12°C / 9°C

[Más]
Viento 50º 14kt
Visibilidad >10km
Tiempo Light Showers Rain 3.00mm precipitation
Nubes Vertical Visibility of 0ft.
Presión 999
Cambiar No Significant change. Runway 06: Wet or puddles, 51-100% contamination with 2mm, friction coefficient 0.50.
Bruto UUWW 261800Z 05007MPS 9999 -SHRA BKN050CB 12/09 Q0999 R06/290250 NOSIG

VFR

12°C / 8°C

[Más]
Viento 70º 8kt
Visibilidad >10km
Tiempo Light Showers Rain 3.00mm precipitation
Nubes Vertical Visibility of 0ft.
Presión 1000
Cambiar No Significant change. Runway 24: Wet or puddles, 51-100% contamination with 2mm, friction coefficient 0.50.
Bruto UUWW 261730Z 07004MPS 9999 -SHRA BKN050CB 12/08 Q1000 R24/290250 NOSIG

VFR

12°C / 8°C

[Más]
Viento 100º 4kt
Visibilidad >10km
Tiempo Light Showers Rain 3.00mm precipitation
Nubes Vertical Visibility of 0ft.
Presión 1000
Cambiar No Significant change. Runway 24: Wet or puddles, 51-100% contamination with <1mm, friction coefficient 0.50.
Bruto UUWW 261700Z 10002MPS 9999 -SHRA BKN050CB 12/08 Q1000 R24/290050 NOSIG

VFR

13°C / 8°C

[Más]
Viento 150º 4kt
Visibilidad >10km
Tiempo Light Showers Rain 3.00mm precipitation
Nubes Vertical Visibility of 0ft.
Presión 1001
Cambiar No Significant change. Runway 24: Wet or puddles, 51-100% contamination with <1mm, friction coefficient 0.50.
Bruto UUWW 261630Z 15002MPS 9999 -SHRA BKN050CB 13/08 Q1001 R24/290050 NOSIG

VFR

14°C / 6°C

[Más]
Viento 180º 6kt
Visibilidad >10km
Tiempo Light Showers Rain 3.00mm precipitation
Nubes Vertical Visibility of 0ft.
Presión 1002
Cambiar No Significant change. Runway 24: Wet or puddles, 51-100% contamination with <1mm, friction coefficient 0.50.
Bruto UUWW 261600Z 18003MPS 9999 -SHRA BKN050CB 14/06 Q1002 R24/290050 NOSIG

VFR

16°C / 3°C

[Más]
Viento 140º variable 100º to 170º 4kt
Visibilidad >10km
Tiempo Light Showers Rain 3.00mm precipitation
Nubes Vertical Visibility of 0ft.
Presión 1002
Cambiar No Significant change. Runway 24: Wet or puddles, 51-100% contamination with <1mm, friction coefficient 0.50.
Bruto UUWW 261530Z 14002MPS 100V170 9999 -SHRA BKN050CB 16/03 Q1002 R24/290050 NOSIG

VFR

17°C / 2°C

[Más]
Viento 180º 6kt. Wind Shear present on Runway 24.
Visibilidad >10km
Tiempo Light Showers Rain 3.00mm precipitation
Nubes Vertical Visibility of 0ft.
Presión 1002
Cambiar No Significant change. Runway 24: Wet or puddles, 51-100% contamination with <1mm, friction coefficient 0.50.
Bruto UUWW 261500Z 18003MPS 9999 -SHRA BKN050CB 17/02 Q1002 WS R24 R24/290050 NOSIG

VFR

18°C / 3°C

[Más]
Viento 180º variable 110º to 220º 8kt Gust 17kt
Visibilidad >10km
Tiempo -
Nubes Clouds and Visibility OK
Presión 1002
Cambiar No Significant change. Runway 06: Damp, 51-100% contamination with <1mm, friction coefficient 0.60.
Bruto UUWW 261430Z 18004G09MPS 110V220 CAVOK 18/03 Q1002 R06/190060 NOSIG

VFR

18°C / 4°C

[Más]
Viento 140º 6kt
Visibilidad >10km
Tiempo -
Nubes Clouds and Visibility OK
Presión 1002
Cambiar No Significant change
Bruto UUWW 261400Z 14003MPS CAVOK 18/04 Q1002 R19/000070 NOSIG

VFR

18°C / 3°C

[Más]
Viento 170º 6kt
Visibilidad >10km
Tiempo -
Nubes Clouds and Visibility OK
Presión 1003
Cambiar No Significant change
Bruto UUWW 261330Z 17003MPS CAVOK 18/03 Q1003 R19/000070 NOSIG

VFR

18°C / 3°C

[Más]
Viento 170º 12kt
Visibilidad >10km
Tiempo -
Nubes Clouds and Visibility OK
Presión 1003
Cambiar No Significant change
Bruto UUWW 261300Z 17006MPS CAVOK 18/03 Q1003 R19/000070 NOSIG

VFR

19°C / 3°C

[Más]
Viento 180º 12kt
Visibilidad >10km
Tiempo -
Nubes Clouds and Visibility OK
Presión 1004
Cambiar No Significant change
Bruto UUWW 261230Z 18006MPS CAVOK 19/03 Q1004 R19/000070 NOSIG

VFR

19°C / 3°C

[Más]
Viento 150º variable 110º to 190º 8kt
Visibilidad >10km
Tiempo -
Nubes Clouds and Visibility OK
Presión 1004
Cambiar No Significant change
Bruto UUWW 261200Z 15004MPS 110V190 CAVOK 19/03 Q1004 R19/000070 NOSIG

VFR

19°C / 3°C

[Más]
Viento 170º 6kt
Visibilidad >10km
Tiempo -
Nubes Clouds and Visibility OK
Presión 1005
Cambiar No Significant change
Bruto UUWW 261130Z 17003MPS CAVOK 19/03 Q1005 R19/000070 NOSIG

VFR

19°C / 3°C

[Más]
Viento 160º variable 120º to 220º 6kt
Visibilidad >10km
Tiempo -
Nubes Clouds and Visibility OK
Presión 1005
Cambiar No Significant change
Bruto UUWW 261100Z 16003MPS 120V220 CAVOK 19/03 Q1005 R19/000070 NOSIG

VFR

19°C / 3°C

[Más]
Viento 200º 6kt
Visibilidad >10km
Tiempo -
Nubes Clouds and Visibility OK
Presión 1005
Cambiar No Significant change
Bruto UUWW 261030Z 20003MPS CAVOK 19/03 Q1005 R19/000070 NOSIG

VFR

19°C / 2°C

[Más]
Viento 210º variable 180º to 260º 8kt
Visibilidad >10km
Tiempo -
Nubes Clouds and Visibility OK
Presión 1006
Cambiar No Significant change
Bruto UUWW 261000Z 21004MPS 180V260 CAVOK 19/02 Q1006 R19/000070 NOSIG

TAF a 55.6°N 37.27°E (UUWW)

From till


Maximum Temperature 15ºC on . Minimum Temperature 9ºC on .
From till Wind 40º 10kt. Gust 19kt. Visibility 8000m. Broken Clouds 2000ft.
With 40% probability, Temporarly from till Light Thunderstorm Rain . Broken Clouds 1200ft.
Temporarly from till Visibility 2100m. Light Showers Rain . Broken Clouds 400ft. Broken Clouds 1600ft.
Becoming from till Wind 290º 16kt. Gust 29kt. Visibility 8000m. Broken Clouds 2000ft.
Temporarly from till Light Showers Rain . Broken Clouds 1500ft.
Becoming from till Wind 210º 6kt. Visibility 8000m. Broken Clouds 2000ft.

Bruto: TAF UUWW 261957Z 2621/2721 04005G10MPS 8000 BKN020 TX15/2712Z TN09/2702Z TEMPO 2621/2702 2100 -SHRA BKN004 BKN016CB PROB40 TEMPO 2621/2701 -TSRA BKN012CB BECMG 2700/2702 29008G15MPS TEMPO 2702/2716 -SHRA BKN015CB BECMG 2716/2718 21003MPS

Radar y precipitación nowcast para 55.6°N 37.27°E

llovizna
Leve
Moderado
Fuerte
Muy fuerte
Granizo

El marcador del lugar se coloca en 55.6°N 37.27°E. Esta animación muestra el radar de precipitaciones hasta la última hora, así como 1h de previsión. Las lloviznas o las nevadas ligeras pueden ser invisibles para el radar. La intensidad de la precipitación está codificada por colores, que van del azul claro al naranja.

Imágenes actuales de satélite y lluvia para 55.6°N 37.27°E

El marcador del lugar se coloca en 55.6°N 37.27°E. [Más]

La imagen de satélite en tiempo real se aprovecha de la combinación de bandas de la luz visible y de la luz infrarroja. Cómo se pueden detectar cambios de temperaturas a través de la banda infrarrojo, la imagen no aparece oscura de noche. No obstante, la niebla y las nubes bajas son apenas visibles en las imágenes de infrarrojo ya que las diferencias de temperaturas entre el suelo y la niebla son muy pequeñas, por eso, son casi invisibles durante la noche. Las imágenes de satélite del Meteosat (Europa) son actualizados en tiempo real cada 5 minutos. Las imágenes del GOES-16/GOES-17 (América del Norte y América del Sur) y Himawari (Asia) son actualizadas cada 10 minutos.

Copyright 2022 EUMETSAT / meteoblue. / Copyright 2022 meteoblue

Volver al principio